Time;durP1;ratioP1;P1;durP2;ratioP2;P2;SDS_P1;SDS_P2;PMS_P1;PMS_P2;Temp;Humidity;BMP_temperature;BMP_pressure;BME280_temperature;BME280_humidity;BME280_pressure;Samples;Min_cycle;Max_cycle;Signal;HPM_P1;HPM_P2
2022/11/11 00:00:11;;;;;;;13.40;8.93;;;6.90;99.90;;;;;;5070020;28;20131;-45
2022/11/11 00:02:36;;;;;;;19.67;9.23;;;6.80;99.90;;;;;;5069864;28;20154;-47
2022/11/11 00:05:02;;;;;;;11.52;7.60;;;6.80;99.90;;;;;;5069829;28;20505;-47
2022/11/11 00:07:28;;;;;;;12.68;8.18;;;6.80;99.90;;;;;;5070230;28;20024;-47
2022/11/11 00:09:53;;;;;;;14.75;8.15;;;6.70;99.90;;;;;;5069899;28;20029;-48
2022/11/11 00:12:19;;;;;;;14.90;8.60;;;6.70;99.90;;;;;;5069164;28;20105;-50
2022/11/11 00:14:44;;;;;;;14.63;7.63;;;6.70;99.90;;;;;;5070701;28;20121;-45
2022/11/11 00:25:24;;;;;;;11.15;7.43;;;6.60;99.90;;;;;;5050761;28;20554;-48
2022/11/11 00:27:50;;;;;;;11.88;7.55;;;6.60;99.90;;;;;;5051530;28;20029;-45
2022/11/11 00:30:16;;;;;;;15.98;8.35;;;6.60;99.90;;;;;;5052495;28;20543;-48
2022/11/11 00:32:41;;;;;;;18.08;9.02;;;6.60;99.90;;;;;;5051637;28;20025;-48
2022/11/11 00:37:52;;;;;;;17.42;7.88;;;6.60;99.90;;;;;;5052568;28;20036;-49
2022/11/11 00:40:18;;;;;;;12.30;7.90;;;6.60;99.90;;;;;;5052380;28;20037;-46
2022/11/11 00:42:43;;;;;;;15.48;7.63;;;6.60;99.90;;;;;;5051714;28;20025;-46
2022/11/11 00:45:10;;;;;;;16.45;8.98;;;6.60;99.90;;;;;;5052192;28;20480;-48
2022/11/11 00:53:12;;;;;;;15.90;9.03;;;6.60;99.90;;;;;;5052088;28;20032;-47
2022/11/11 00:55:38;;;;;;;13.15;8.57;;;6.60;99.90;;;;;;5051703;28;20077;-45
2022/11/11 00:58:03;;;;;;;10.90;7.82;;;6.50;99.90;;;;;;5052055;28;20033;-46
2022/11/11 01:00:29;;;;;;;9.35;6.90;;;6.50;99.90;;;;;;5052071;28;20495;-45
2022/11/11 01:02:56;;;;;;;12.32;7.40;;;6.40;99.90;;;;;;5050851;28;20033;-45
2022/11/11 01:05:22;;;;;;;9.40;6.82;;;6.40;99.90;;;;;;5051366;28;20056;-46
2022/11/11 01:07:49;;;;;;;20.35;8.60;;;6.40;99.90;;;;;;5051923;28;20056;-48
2022/11/11 01:10:36;;;;;;;9.48;7.55;;;6.40;99.90;;;;;;5051757;28;20017;-46
2022/11/11 01:13:13;;;;;;;13.95;8.43;;;6.40;99.90;;;;;;5051614;28;20029;-48
2022/11/11 01:15:44;;;;;;;14.15;7.65;;;6.40;99.90;;;;;;5051843;28;20025;-46
2022/11/11 01:18:11;;;;;;;16.77;7.63;;;6.40;99.90;;;;;;5051385;28;20027;-47
2022/11/11 01:20:37;;;;;;;13.52;7.90;;;6.30;99.90;;;;;;5052762;28;20032;-45
2022/11/11 01:23:07;;;;;;;10.60;7.53;;;6.30;99.90;;;;;;5051352;28;20027;-44
2022/11/11 01:25:34;;;;;;;12.68;7.25;;;6.30;99.90;;;;;;5051664;28;20060;-49
2022/11/11 01:28:01;;;;;;;11.15;8.25;;;6.30;99.90;;;;;;5051461;28;20096;-46
2022/11/11 01:30:26;;;;;;;26.20;16.88;;;6.30;99.90;;;;;;5051535;28;20082;-48
2022/11/11 01:32:52;;;;;;;180.18;99.75;;;6.40;99.90;;;;;;5050727;28;20025;-45
2022/11/11 01:35:17;;;;;;;23.40;16.88;;;6.40;99.90;;;;;;5051818;28;20033;-44
2022/11/11 01:37:43;;;;;;;15.05;9.82;;;6.40;99.90;;;;;;5051393;28;20033;-46
2022/11/11 01:40:09;;;;;;;17.58;9.85;;;6.40;99.90;;;;;;5051655;28;20055;-47
2022/11/11 01:43:03;;;;;;;13.10;8.35;;;6.50;99.90;;;;;;5051603;28;20396;-46
2022/11/11 01:45:46;;;;;;;11.98;7.90;;;6.40;99.90;;;;;;5050928;28;20556;-46
2022/11/11 01:51:11;;;;;;;13.95;8.48;;;6.30;99.90;;;;;;5051474;28;20459;-47
2022/11/11 01:53:36;;;;;;;19.63;10.07;;;6.30;99.90;;;;;;5051076;28;20021;-46
2022/11/11 01:56:03;;;;;;;13.30;9.55;;;6.30;99.90;;;;;;5051399;28;20068;-47
2022/11/11 01:58:29;;;;;;;15.82;8.13;;;6.40;99.90;;;;;;5050956;28;20036;-48
2022/11/11 02:00:57;;;;;;;54.70;9.13;;;6.40;99.90;;;;;;5051404;28;20064;-50
2022/11/11 02:03:25;;;;;;;24.77;10.35;;;6.30;99.90;;;;;;5051081;28;20032;-46
2022/11/11 02:05:55;;;;;;;16.63;9.77;;;6.30;99.90;;;;;;5051242;28;20033;-44
2022/11/11 02:08:32;;;;;;;36.72;8.65;;;6.30;99.90;;;;;;5051562;28;20104;-50
2022/11/11 02:14:34;;;;;;;28.65;7.85;;;6.30;99.90;;;;;;5051197;28;20044;-48
2022/11/11 02:16:45;;;;;;;12.02;7.88;;;6.10;99.90;;;;;;5055283;28;20067;-44
2022/11/11 02:19:13;;;;;;;20.50;7.68;;;6.00;99.90;;;;;;5054902;28;20021;-47
2022/11/11 02:21:50;;;;;;;18.33;8.13;;;5.90;99.90;;;;;;5054837;28;20020;-43
2022/11/11 02:24:19;;;;;;;20.45;8.60;;;5.90;99.90;;;;;;5054788;28;20096;-44
2022/11/11 02:26:46;;;;;;;26.77;7.88;;;5.80;99.90;;;;;;5055033;28;20021;-50
2022/11/11 02:29:15;;;;;;;62.15;10.93;;;5.70;99.90;;;;;;5054624;28;20542;-45
2022/11/11 02:31:41;;;;;;;14.43;7.93;;;5.70;99.90;;;;;;5054951;28;20037;-45
2022/11/11 02:34:07;;;;;;;16.15;8.48;;;5.70;99.90;;;;;;5054159;28;20420;-45
2022/11/11 02:36:33;;;;;;;18.63;10.30;;;5.70;99.90;;;;;;5054728;28;20033;-48
2022/11/11 02:38:59;;;;;;;17.45;8.15;;;5.70;99.90;;;;;;5054529;28;20051;-45
2022/11/11 02:44:08;;;;;;;25.85;8.82;;;5.80;99.90;;;;;;5054477;28;20032;-45
2022/11/11 02:46:34;;;;;;;14.82;9.15;;;5.80;99.90;;;;;;5054504;28;20025;-51
2022/11/11 02:48:59;;;;;;;28.38;9.43;;;5.90;99.90;;;;;;5054404;28;20464;-45
2022/11/11 02:51:25;;;;;;;18.95;9.32;;;5.90;99.90;;;;;;5054258;28;20090;-43
2022/11/11 02:53:50;;;;;;;23.92;10.52;;;5.90;99.90;;;;;;5054064;28;20473;-48
2022/11/11 02:57:05;;;;;;;20.73;9.82;;;6.00;99.90;;;;;;5054598;28;20029;-44
2022/11/11 02:59:01;;;;;;;31.90;9.20;;;5.90;99.90;;;;;;5054417;28;20501;-45
2022/11/11 03:01:27;;;;;;;10.05;7.43;;;6.00;99.90;;;;;;5054428;28;20125;-45
2022/11/11 03:03:52;;;;;;;19.88;8.93;;;6.00;99.90;;;;;;5054143;28;20056;-46
2022/11/11 03:06:18;;;;;;;21.50;8.07;;;6.00;99.90;;;;;;5054280;28;20039;-45
2022/11/11 03:08:43;;;;;;;12.23;8.20;;;6.00;99.90;;;;;;5054159;28;20032;-42
2022/11/11 03:11:09;;;;;;;31.60;9.38;;;6.00;99.90;;;;;;5054504;28;20358;-46
2022/11/11 03:13:34;;;;;;;17.42;11.23;;;6.00;99.90;;;;;;5054224;28;20066;-47
2022/11/11 03:16:00;;;;;;;39.35;10.93;;;6.00;99.90;;;;;;5054741;28;20036;-42
2022/11/11 03:18:25;;;;;;;53.03;10.10;;;6.00;99.90;;;;;;5054526;28;20060;-48
2022/11/11 03:21:03;;;;;;;14.20;9.07;;;6.00;99.90;;;;;;5054712;28;20035;-44
2022/11/11 03:23:29;;;;;;;17.17;10.40;;;6.00;99.90;;;;;;5053589;28;20021;-45
2022/11/11 03:25:54;;;;;;;52.05;11.80;;;6.00;99.90;;;;;;5052693;28;20043;-44
2022/11/11 03:28:20;;;;;;;34.25;11.63;;;6.00;99.90;;;;;;5053709;28;20155;-47
2022/11/11 03:30:49;;;;;;;24.83;11.30;;;6.10;99.90;;;;;;5053745;28;20025;-45
2022/11/11 03:33:16;;;;;;;23.35;11.65;;;6.10;99.90;;;;;;5053062;28;20052;-45
2022/11/11 03:35:43;;;;;;;26.77;10.60;;;6.20;99.90;;;;;;5053629;28;20036;-47
2022/11/11 03:38:23;;;;;;;56.40;13.00;;;6.20;99.90;;;;;;5053536;28;20029;-47
2022/11/11 03:40:52;;;;;;;36.55;13.10;;;6.20;99.90;;;;;;5053578;28;20108;-47
2022/11/11 03:43:19;;;;;;;45.08;13.15;;;6.20;99.90;;;;;;5053163;28;20099;-47
2022/11/11 03:45:44;;;;;;;98.93;13.07;;;6.30;99.90;;;;;;5053336;28;20017;-45
2022/11/11 03:48:11;;;;;;;21.88;12.43;;;6.30;99.90;;;;;;5053235;28;20100;-49
2022/11/11 03:50:36;;;;;;;20.85;11.35;;;6.30;99.90;;;;;;5053348;28;20029;-46
2022/11/11 03:53:02;;;;;;;23.50;10.90;;;6.30;99.90;;;;;;5053026;28;20098;-46
2022/11/11 03:55:28;;;;;;;34.25;10.45;;;6.30;99.90;;;;;;5053236;28;20029;-50
2022/11/11 03:57:54;;;;;;;25.70;10.85;;;6.30;99.90;;;;;;5053207;28;20035;-46
2022/11/11 04:00:24;;;;;;;18.90;9.90;;;6.40;99.90;;;;;;5052963;28;20114;-48
2022/11/11 04:11:10;;;;;;;32.97;9.77;;;6.40;99.90;;;;;;5053181;28;20031;-45
2022/11/11 04:16:20;;;;;;;14.90;9.77;;;6.40;99.90;;;;;;5053118;28;20036;-48
2022/11/11 04:21:42;;;;;;;39.55;10.00;;;6.40;99.90;;;;;;5052729;28;20072;-50
2022/11/11 04:26:56;;;;;;;31.00;9.32;;;6.40;99.90;;;;;;5053243;28;20023;-52
2022/11/11 04:29:28;;;;;;;42.45;9.00;;;6.40;99.90;;;;;;5052462;28;20035;-48
2022/11/11 04:34:53;;;;;;;11.82;6.97;;;6.40;99.90;;;;;;5051082;28;20048;-46
2022/11/11 04:37:20;;;;;;;23.40;7.55;;;6.30;99.90;;;;;;5052210;28;20021;-46
2022/11/11 04:42:31;;;;;;;51.75;8.07;;;6.20;99.90;;;;;;5052290;28;20117;-46
2022/11/11 04:47:52;;;;;;;8.80;7.07;;;6.20;99.90;;;;;;5052357;28;20032;-44
2022/11/11 04:50:17;;;;;;;9.75;7.28;;;6.20;99.90;;;;;;5052160;28;20420;-45
2022/11/11 04:52:43;;;;;;;16.80;6.72;;;6.20;99.90;;;;;;5051807;28;20028;-45
2022/11/11 04:57:53;;;;;;;30.95;8.32;;;6.20;99.90;;;;;;5051990;28;20112;-45
2022/11/11 05:00:19;;;;;;;9.13;6.80;;;6.30;99.90;;;;;;5052638;28;20063;-48
2022/11/11 05:08:54;;;;;;;40.55;8.63;;;6.20;99.90;;;;;;5051866;28;20163;-48
2022/11/11 05:10:59;;;;;;;19.55;7.88;;;6.20;99.90;;;;;;5051909;28;20036;-48
2022/11/11 05:21:52;;;;;;;12.48;7.60;;;6.30;99.90;;;;;;5051587;28;20032;-46
2022/11/11 05:27:02;;;;;;;67.60;9.63;;;6.30;99.90;;;;;;5051735;28;20416;-47
2022/11/11 05:29:27;;;;;;;24.55;8.63;;;6.20;99.90;;;;;;5051527;28;20021;-45
2022/11/11 05:31:52;;;;;;;11.32;7.28;;;6.10;99.90;;;;;;5051666;28;20036;-42
2022/11/11 05:34:18;;;;;;;92.10;9.80;;;6.00;99.90;;;;;;5051289;28;20020;-48
2022/11/11 05:36:43;;;;;;;34.97;8.50;;;6.00;99.90;;;;;;5051412;28;20432;-46
2022/11/11 05:39:09;;;;;;;36.45;8.40;;;6.00;99.90;;;;;;5051688;28;20039;-46
2022/11/11 05:41:34;;;;;;;33.67;8.95;;;6.00;99.90;;;;;;5052406;28;20065;-48
2022/11/11 05:44:00;;;;;;;26.02;8.57;;;6.00;99.90;;;;;;5052842;28;20467;-46
2022/11/11 05:46:25;;;;;;;30.80;8.23;;;6.00;99.90;;;;;;5051832;28;20029;-47
2022/11/11 05:51:35;;;;;;;20.15;8.30;;;6.00;99.90;;;;;;5058055;28;20416;-48
2022/11/11 05:54:01;;;;;;;49.15;7.07;;;6.00;99.90;;;;;;5057674;28;20037;-46
2022/11/11 05:56:26;;;;;;;11.55;6.20;;;5.90;99.90;;;;;;5058048;28;20020;-48
2022/11/11 05:58:52;;;;;;;50.00;6.10;;;5.90;99.90;;;;;;5057937;28;20029;-47
2022/11/11 06:01:17;;;;;;;10.68;5.63;;;5.90;99.90;;;;;;5057851;28;20036;-46
2022/11/11 06:03:43;;;;;;;46.78;5.88;;;5.80;99.90;;;;;;5057649;28;20071;-49
2022/11/11 06:06:09;;;;;;;49.70;6.68;;;5.80;99.90;;;;;;5057671;28;20025;-46
2022/11/11 06:08:34;;;;;;;14.90;5.50;;;5.80;99.90;;;;;;5057722;28;20480;-49
2022/11/11 06:11:00;;;;;;;36.15;6.90;;;5.80;99.90;;;;;;5058021;28;20491;-46
2022/11/11 06:13:25;;;;;;;47.35;7.00;;;5.90;99.90;;;;;;5057560;28;20040;-47
2022/11/11 06:15:51;;;;;;;58.30;6.57;;;5.90;99.90;;;;;;5057854;28;20029;-49
2022/11/11 06:18:16;;;;;;;22.85;5.70;;;5.90;99.90;;;;;;5057817;28;20400;-48
2022/11/11 06:20:42;;;;;;;8.13;5.60;;;5.90;99.90;;;;;;5057627;28;20029;-51
2022/11/11 06:23:09;;;;;;;31.95;6.97;;;5.90;99.90;;;;;;5057612;28;20067;-47
2022/11/11 06:28:19;;;;;;;7.82;5.40;;;5.90;99.90;;;;;;5057999;28;20028;-49
2022/11/11 06:30:45;;;;;;;96.95;8.43;;;5.90;99.90;;;;;;5057951;28;20048;-48
2022/11/11 06:33:10;;;;;;;45.08;5.75;;;6.10;99.90;;;;;;5057072;28;20032;-46
2022/11/11 06:35:38;;;;;;;21.45;6.35;;;6.00;99.90;;;;;;5058277;28;20104;-49
2022/11/11 06:38:05;;;;;;;29.58;7.07;;;5.90;99.90;;;;;;5057473;28;20027;-47
2022/11/11 06:40:31;;;;;;;33.67;6.55;;;5.80;99.90;;;;;;5057543;28;20032;-46
2022/11/11 06:42:58;;;;;;;7.97;5.88;;;5.90;99.90;;;;;;5057245;28;20467;-46
2022/11/11 06:45:24;;;;;;;8.52;6.22;;;5.90;99.90;;;;;;5057490;28;20049;-49
2022/11/11 06:47:50;;;;;;;9.35;6.80;;;5.90;99.90;;;;;;5057731;28;20378;-48
2022/11/11 06:50:16;;;;;;;6.93;5.63;;;6.00;99.90;;;;;;5057396;28;20048;-46
2022/11/11 06:52:41;;;;;;;7.32;5.47;;;6.10;99.90;;;;;;5057432;28;20021;-47
2022/11/11 06:55:07;;;;;;;7.97;6.13;;;6.10;99.90;;;;;;5057729;28;20021;-47
2022/11/11 06:57:32;;;;;;;10.68;7.18;;;6.10;99.90;;;;;;5057658;28;20036;-48
2022/11/11 06:59:58;;;;;;;10.88;6.10;;;6.20;99.90;;;;;;5056953;28;20029;-46
2022/11/11 07:02:23;;;;;;;7.78;6.07;;;6.30;99.90;;;;;;5054143;28;20024;-46
2022/11/11 07:04:49;;;;;;;10.93;6.35;;;6.30;99.90;;;;;;5053945;28;20163;-50
2022/11/11 07:07:16;;;;;;;10.77;6.82;;;6.30;99.90;;;;;;5054212;28;20025;-47
2022/11/11 07:09:42;;;;;;;13.15;7.03;;;6.40;99.90;;;;;;5054572;28;20017;-45
2022/11/11 07:12:07;;;;;;;34.50;7.28;;;6.50;99.90;;;;;;5054372;28;20349;-47
2022/11/11 07:14:33;;;;;;;9.65;6.22;;;6.50;99.90;;;;;;5054212;28;20512;-46
2022/11/11 07:16:58;;;;;;;27.30;6.22;;;6.40;99.90;;;;;;5054320;28;20025;-46
2022/11/11 07:21:49;;;;;;;17.73;6.65;;;6.30;99.90;;;;;;5071812;23;20049;-42
2022/11/11 07:24:15;;;;;;;11.60;6.10;;;6.30;99.90;;;;;;5044982;28;20037;-45
2022/11/11 07:26:41;;;;;;;22.60;6.53;;;6.30;99.90;;;;;;5054232;28;20031;-44
2022/11/11 07:29:06;;;;;;;23.17;6.97;;;6.30;99.90;;;;;;5053777;28;20020;-45
2022/11/11 07:31:32;;;;;;;37.17;6.82;;;6.30;99.90;;;;;;5053350;28;20033;-43
2022/11/11 07:33:57;;;;;;;18.95;6.85;;;6.30;99.90;;;;;;5053354;28;20021;-45
2022/11/11 07:36:23;;;;;;;14.00;7.53;;;6.20;99.90;;;;;;5053720;28;20095;-47
2022/11/11 07:38:48;;;;;;;16.40;6.63;;;6.30;99.90;;;;;;5052768;28;20035;-42
2022/11/11 07:41:14;;;;;;;16.63;6.57;;;6.30;99.90;;;;;;5053511;28;20033;-42
2022/11/11 07:43:39;;;;;;;46.03;7.15;;;6.40;99.90;;;;;;5053087;28;20088;-41
2022/11/11 07:46:05;;;;;;;9.27;6.45;;;6.50;99.90;;;;;;5055178;28;20091;-43
2022/11/11 07:48:30;;;;;;;27.33;6.47;;;6.60;99.90;;;;;;5055190;28;20489;-44
2022/11/11 07:50:56;;;;;;;26.13;6.53;;;6.50;99.90;;;;;;5054980;28;20215;-43
2022/11/11 07:53:22;;;;;;;15.27;5.18;;;6.50;99.90;;;;;;5054147;28;20036;-43
2022/11/11 07:55:47;;;;;;;20.65;5.93;;;6.50;99.90;;;;;;5051573;28;20114;-42
2022/11/11 07:58:13;;;;;;;23.40;7.30;;;6.50;99.90;;;;;;5033050;28;20029;-45
2022/11/11 08:00:38;;;;;;;25.95;7.10;;;6.40;99.90;;;;;;5046637;28;20037;-49
2022/11/11 08:03:06;;;;;;;16.40;5.90;;;6.40;99.90;;;;;;5052886;28;20361;-47
2022/11/11 08:05:31;;;;;;;25.38;6.88;;;6.40;99.90;;;;;;5052979;28;20100;-47
2022/11/11 08:08:03;;;;;;;14.65;5.88;;;6.50;99.90;;;;;;5052944;28;20056;-45
2022/11/11 08:10:28;;;;;;;16.77;6.07;;;6.50;99.90;;;;;;5053186;28;20511;-43
2022/11/11 08:15:38;;;;;;;15.70;7.10;;;6.50;99.90;;;;;;5052920;28;20064;-47
2022/11/11 08:18:03;;;;;;;9.20;6.22;;;6.60;99.90;;;;;;5053238;28;20048;-45
2022/11/11 08:20:29;;;;;;;11.32;6.30;;;6.70;99.90;;;;;;5052521;28;20139;-42
2022/11/11 08:22:56;;;;;;;17.92;6.55;;;6.80;99.90;;;;;;5052222;28;20037;-50
2022/11/11 08:25:22;;;;;;;23.00;7.22;;;7.00;99.90;;;;;;5052498;28;20083;-46
2022/11/11 08:27:48;;;;;;;18.52;7.38;;;7.10;99.90;;;;;;5052135;28;20021;-46
2022/11/11 08:30:14;;;;;;;19.75;7.30;;;7.10;99.90;;;;;;5052292;28;20123;-48
2022/11/11 08:32:39;;;;;;;20.38;7.82;;;7.10;99.90;;;;;;5052052;28;20056;-42
2022/11/11 08:35:06;;;;;;;19.90;9.10;;;7.10;99.90;;;;;;5052090;28;20396;-45
2022/11/11 08:37:31;;;;;;;42.45;8.32;;;7.10;99.90;;;;;;5052052;28;20029;-45
2022/11/11 08:39:57;;;;;;;18.50;8.43;;;7.10;99.90;;;;;;5052170;28;20381;-45
2022/11/11 08:42:23;;;;;;;18.38;9.15;;;7.10;99.90;;;;;;5052008;28;20063;-45
2022/11/11 08:44:48;;;;;;;22.80;9.88;;;7.10;99.90;;;;;;5052077;28;20074;-44
2022/11/11 08:47:14;;;;;;;23.42;9.48;;;7.20;99.90;;;;;;5052469;28;20029;-44
2022/11/11 08:49:39;;;;;;;23.90;9.88;;;7.30;99.90;;;;;;5052233;28;20028;-43
2022/11/11 08:52:05;;;;;;;27.38;11.02;;;7.30;99.90;;;;;;5051685;28;20396;-44
2022/11/11 08:54:32;;;;;;;18.50;10.95;;;7.30;99.90;;;;;;5052752;28;20017;-45
2022/11/11 08:56:57;;;;;;;27.95;11.77;;;7.40;99.90;;;;;;5053833;28;20079;-44
2022/11/11 08:59:23;;;;;;;37.20;11.35;;;7.50;99.90;;;;;;5052790;28;20017;-43
2022/11/11 09:01:48;;;;;;;30.05;11.20;;;7.50;99.90;;;;;;5051995;28;20424;-45
2022/11/11 09:04:16;;;;;;;28.40;10.88;;;7.50;99.90;;;;;;5051626;28;20428;-41
2022/11/11 09:06:44;;;;;;;24.85;11.25;;;7.50;99.90;;;;;;5051902;28;20047;-47
2022/11/11 09:09:10;;;;;;;19.83;10.60;;;7.40;99.90;;;;;;5051853;28;20036;-44
2022/11/11 09:11:35;;;;;;;38.08;10.63;;;7.50;99.90;;;;;;5051657;28;20032;-43
2022/11/11 09:14:01;;;;;;;34.78;10.60;;;7.50;99.90;;;;;;5051476;28;20485;-45
2022/11/11 09:16:27;;;;;;;33.53;10.30;;;7.50;99.90;;;;;;5051692;28;20032;-45
2022/11/11 09:18:52;;;;;;;30.15;11.02;;;7.40;99.90;;;;;;5051607;28;20026;-45
2022/11/11 09:21:18;;;;;;;25.08;11.82;;;7.40;99.90;;;;;;5050094;28;20036;-45
2022/11/11 09:23:43;;;;;;;24.27;11.55;;;7.30;99.90;;;;;;5050366;28;20033;-44
2022/11/11 09:26:09;;;;;;;25.48;10.45;;;7.30;99.90;;;;;;5051679;28;20032;-44
2022/11/11 09:28:35;;;;;;;26.80;12.82;;;7.30;99.90;;;;;;5051984;28;20139;-49
2022/11/11 09:31:01;;;;;;;26.08;12.85;;;7.40;99.90;;;;;;5051799;28;20029;-46
2022/11/11 09:33:27;;;;;;;22.40;11.93;;;7.30;99.90;;;;;;5051449;28;20031;-49
2022/11/11 09:35:53;;;;;;;23.83;11.55;;;7.30;99.90;;;;;;5051504;28;20396;-43
2022/11/11 09:38:18;;;;;;;32.78;12.00;;;7.40;99.90;;;;;;5051377;28;20031;-48
2022/11/11 09:41:18;;;;;;;43.20;11.68;;;7.40;99.90;;;;;;5049933;28;20021;-50
2022/11/11 09:44:02;;;;;;;20.95;12.52;;;7.40;99.90;;;;;;5050930;28;20021;-45
2022/11/11 09:46:34;;;;;;;29.67;13.73;;;7.50;99.90;;;;;;5051385;28;20396;-44
2022/11/11 09:49:09;;;;;;;25.58;13.60;;;7.50;99.90;;;;;;5051325;28;20048;-44
2022/11/11 09:51:53;;;;;;;;;;;7.50;99.90;;;;;;5051721;28;20032;-45
2022/11/11 09:54:51;;;;;;;26.83;12.63;;;7.50;99.90;;;;;;5051488;28;19904;-43
2022/11/11 09:57:38;;;;;;;44.65;15.57;;;7.60;99.90;;;;;;5048139;28;20037;-44
2022/11/11 10:00:24;;;;;;;27.45;14.15;;;7.60;99.90;;;;;;5052775;28;20044;-46
2022/11/11 10:02:53;;;;;;;25.42;13.98;;;7.60;99.90;;;;;;5050967;28;20207;-46
2022/11/11 10:05:24;;;;;;;23.75;13.80;;;7.60;99.90;;;;;;5051387;28;20108;-47
2022/11/11 10:07:58;;;;;;;27.60;14.48;;;7.60;99.90;;;;;;5051054;28;20021;-44
2022/11/11 10:10:37;;;;;;;32.33;16.13;;;7.60;99.90;;;;;;5050898;28;20294;-47
2022/11/11 10:13:02;;;;;;;32.70;16.60;;;7.80;99.90;;;;;;5051015;28;20488;-45
2022/11/11 10:15:37;;;;;;;30.40;16.33;;;7.80;99.90;;;;;;5050924;28;20036;-46
2022/11/11 10:18:15;;;;;;;33.58;18.33;;;7.90;99.90;;;;;;5050988;28;20024;-44
2022/11/11 10:20:46;;;;;;;33.67;18.42;;;7.80;99.90;;;;;;5050908;28;20040;-49
2022/11/11 10:23:16;;;;;;;34.25;17.55;;;7.90;99.90;;;;;;5050810;28;20112;-46
2022/11/11 10:25:51;;;;;;;38.85;18.50;;;7.80;99.90;;;;;;5051368;28;20378;-42
2022/11/11 10:28:19;;;;;;;;;;;7.80;99.90;;;;;;5051307;28;20085;-48
2022/11/11 10:30:46;;;;;;;37.40;20.08;;;7.80;99.90;;;;;;5050880;28;20376;-46
2022/11/11 10:33:19;;;;;;;34.28;19.92;;;7.80;99.90;;;;;;5050414;28;20025;-48
2022/11/11 10:35:49;;;;;;;47.88;19.95;;;7.80;99.90;;;;;;5052503;28;20106;-45
2022/11/11 10:38:45;;;;;;;40.67;20.67;;;7.80;99.90;;;;;;5054173;28;20024;-46
2022/11/11 10:41:18;;;;;;;57.20;20.02;;;7.90;99.90;;;;;;5054668;28;20036;-44
2022/11/11 10:43:46;;;;;;;41.70;20.15;;;7.80;99.90;;;;;;5054682;28;20052;-47
2022/11/11 10:46:21;;;;;;;44.47;22.35;;;7.80;99.90;;;;;;5054757;28;20451;-45
2022/11/11 10:49:11;;;;;;;104.45;23.17;;;7.80;99.90;;;;;;5054767;28;20024;-41
2022/11/11 10:51:50;;;;;;;45.17;21.15;;;7.80;99.90;;;;;;5055412;28;20103;-45
2022/11/11 10:54:27;;;;;;;67.03;23.05;;;7.70;99.90;;;;;;5054053;28;20025;-46
2022/11/11 10:57:01;;;;;;;38.40;21.15;;;7.70;99.90;;;;;;5055154;28;20040;-41
2022/11/11 10:59:36;;;;;;;39.80;21.47;;;7.70;99.90;;;;;;5054991;28;20029;-43
2022/11/11 11:02:12;;;;;;;49.90;22.45;;;7.80;99.90;;;;;;5054462;28;20291;-42
2022/11/11 11:04:44;;;;;;;47.28;24.63;;;7.90;99.90;;;;;;5053885;28;20254;-47
2022/11/11 11:07:14;;;;;;;60.20;23.73;;;7.90;99.90;;;;;;5053600;28;20032;-44
2022/11/11 11:10:00;;;;;;;47.65;22.30;;;8.10;99.90;;;;;;5050124;28;20151;-45
2022/11/11 11:12:50;;;;;;;48.78;22.67;;;8.20;99.90;;;;;;5053236;28;20052;-43
2022/11/11 11:15:20;;;;;;;43.60;23.52;;;8.10;99.90;;;;;;5053549;28;20025;-45
2022/11/11 11:17:48;;;;;;;42.30;22.95;;;8.10;99.90;;;;;;5053504;28;20090;-43
2022/11/11 11:20:19;;;;;;;54.45;23.88;;;8.10;99.90;;;;;;5053524;28;20468;-44
2022/11/11 11:23:03;;;;;;;47.67;23.10;;;8.10;99.90;;;;;;5052450;28;20082;-43
2022/11/11 11:25:32;;;;;;;61.63;22.35;;;8.10;99.90;;;;;;5052724;28;20033;-44
2022/11/11 11:28:18;;;;;;;49.97;25.20;;;8.10;99.90;;;;;;5052283;28;20036;-45
2022/11/11 11:31:02;;;;;;;46.85;23.27;;;8.10;99.90;;;;;;5042518;28;20040;-47
2022/11/11 11:33:49;;;;;;;58.58;25.05;;;8.20;99.90;;;;;;5053402;28;20505;-45
2022/11/11 11:36:16;;;;;;;49.10;23.52;;;8.30;99.90;;;;;;5033754;28;20032;-42
2022/11/11 11:38:51;;;;;;;44.50;21.58;;;8.30;99.90;;;;;;5034454;28;20049;-43
2022/11/11 11:41:18;;;;;;;46.65;22.70;;;8.30;99.90;;;;;;5033681;28;20090;-42
2022/11/11 11:43:45;;;;;;;46.22;21.00;;;8.30;99.90;;;;;;5035151;28;20083;-44
2022/11/11 11:46:27;;;;;;;43.75;22.52;;;8.30;99.90;;;;;;5050187;28;20041;-46
2022/11/11 11:49:34;;;;;;;42.60;21.25;;;8.40;99.90;;;;;;5054367;28;20036;-41
2022/11/11 11:52:05;;;;;;;75.35;22.13;;;8.40;99.90;;;;;;5007575;28;20536;-45
2022/11/11 11:54:49;;;;;;;73.03;22.00;;;8.30;99.90;;;;;;4992128;28;20080;-44
2022/11/11 11:57:49;;;;;;;64.50;21.10;;;8.10;99.90;;;;;;5025005;28;20042;-41
2022/11/11 12:00:22;;;;;;;47.45;23.50;;;8.00;99.90;;;;;;5033054;28;20024;-44
2022/11/11 12:03:06;;;;;;;60.05;24.15;;;8.00;99.90;;;;;;5032692;28;20025;-45
2022/11/11 12:05:40;;;;;;;64.25;25.83;;;8.00;99.90;;;;;;5033905;28;20568;-42
2022/11/11 12:08:20;;;;;;;60.40;31.33;;;8.00;99.90;;;;;;5032948;28;20049;-42
2022/11/11 12:11:01;;;;;;;45.60;24.70;;;8.10;99.90;;;;;;5032652;28;20022;-47
2022/11/11 12:13:42;;;;;;;43.83;24.05;;;8.10;99.90;;;;;;5043200;28;20033;-48
2022/11/11 12:16:18;;;;;;;45.53;23.52;;;8.20;99.90;;;;;;5054200;28;20385;-41
2022/11/11 12:18:56;;;;;;;48.55;25.50;;;8.20;99.90;;;;;;5054163;28;20029;-50
2022/11/11 12:21:30;;;;;;;51.15;25.80;;;8.20;99.90;;;;;;5054271;28;20032;-47
2022/11/11 12:24:13;;;;;;;53.47;26.08;;;8.20;99.90;;;;;;5051240;28;20388;-43
2022/11/11 12:26:53;;;;;;;49.90;26.90;;;8.30;99.90;;;;;;5052174;28;20028;-46
2022/11/11 12:29:22;;;;;;;47.75;25.60;;;8.30;99.90;;;;;;5052377;28;20029;-42
2022/11/11 12:32:21;;;;;;;71.45;30.13;;;8.40;99.90;;;;;;5051900;28;20416;-46
2022/11/11 12:34:59;;;;;;;67.13;27.63;;;8.50;99.90;;;;;;5052068;28;20428;-50
2022/11/11 12:38:00;;;;;;;52.58;27.08;;;8.30;99.90;;;;;;5052191;28;20400;-44
2022/11/11 12:40:51;;;;;;;55.30;27.30;;;8.30;99.90;;;;;;5051069;28;20021;-44
2022/11/11 12:43:37;;;;;;;57.78;30.40;;;8.30;99.90;;;;;;5051928;28;20021;-43
2022/11/11 12:46:27;;;;;;;57.17;28.58;;;8.30;99.90;;;;;;5053056;28;20028;-50
2022/11/11 12:48:59;;;;;;;59.45;30.70;;;8.30;99.90;;;;;;5053233;28;20441;-48
2022/11/11 12:51:54;;;;;;;52.55;29.23;;;8.40;99.90;;;;;;5050714;28;20504;-45
2022/11/11 12:54:49;;;;;;;60.65;30.13;;;8.50;99.90;;;;;;5015220;28;20030;-44
2022/11/11 12:57:29;;;;;;;77.00;30.55;;;8.50;99.90;;;;;;5050641;28;20365;-43
2022/11/11 12:59:58;;;;;;;70.65;27.65;;;8.60;99.90;;;;;;5052245;28;20041;-45
2022/11/11 13:02:45;;;;;;;68.32;30.90;;;8.60;99.90;;;;;;5050483;28;20055;-43
2022/11/11 13:05:15;;;;;;;70.97;32.03;;;8.50;99.90;;;;;;5050071;28;20463;-41
2022/11/11 13:08:09;;;;;;;49.83;28.52;;;8.50;99.90;;;;;;5050339;28;20439;-44
2022/11/11 13:11:11;;;;;;;56.28;31.05;;;8.50;99.90;;;;;;5051140;28;20033;-42
2022/11/11 13:14:03;;;;;;;56.35;28.88;;;8.50;99.90;;;;;;5052083;28;20508;-46
2022/11/11 13:16:29;;;;;;;57.35;31.70;;;8.60;99.90;;;;;;5052634;28;20443;-45
2022/11/11 13:19:23;;;;;;;61.80;32.75;;;8.60;99.90;;;;;;5052622;28;20025;-44
2022/11/11 13:22:01;;;;;;;60.88;30.48;;;8.60;99.90;;;;;;5051955;28;20037;-48
2022/11/11 13:24:30;;;;;;;71.55;31.73;;;8.60;99.90;;;;;;5052241;28;20033;-46
2022/11/11 13:27:25;;;;;;;67.18;34.20;;;8.70;99.90;;;;;;5052186;28;20582;-43
2022/11/11 13:29:56;;;;;;;65.88;33.45;;;8.70;99.90;;;;;;5046104;28;20155;-44
2022/11/11 13:32:26;;;;;;;61.00;34.10;;;8.60;99.90;;;;;;5051669;28;20104;-46
2022/11/11 13:34:52;;;;;;;56.53;30.40;;;8.60;99.90;;;;;;5051499;28;20013;-42
2022/11/11 13:37:27;;;;;;;64.55;31.20;;;8.70;99.90;;;;;;5051114;28;20029;-45
2022/11/11 13:40:01;;;;;;;55.83;30.17;;;8.70;99.90;;;;;;5069294;23;20118;-50
2022/11/11 13:42:33;;;;;;;59.10;32.25;;;8.70;99.90;;;;;;5033519;28;20033;-59
2022/11/11 13:45:02;;;;;;;57.17;29.52;;;8.80;99.90;;;;;;5051306;28;20399;-55
2022/11/11 13:47:35;;;;;;;96.55;53.92;;;8.90;99.90;;;;;;5051137;28;20040;-49
2022/11/11 13:50:20;;;;;;;57.25;33.88;;;8.80;99.90;;;;;;5064082;28;20111;-51
2022/11/11 13:53:02;;;;;;;52.63;28.53;;;8.70;99.90;;;;;;5071260;28;20041;-49
2022/11/11 13:55:37;;;;;;;51.13;28.63;;;8.70;99.90;;;;;;5070842;28;20267;-49
2022/11/11 13:58:04;;;;;;;55.35;31.15;;;8.70;99.90;;;;;;5071140;28;20032;-53
2022/11/11 14:00:36;;;;;;;51.67;30.33;;;8.70;99.90;;;;;;5070890;28;20024;-49
2022/11/11 14:03:23;;;;;;;56.55;30.00;;;8.80;99.90;;;;;;5070858;28;20099;-46
2022/11/11 14:06:14;;;;;;;49.70;27.88;;;8.80;99.90;;;;;;5067475;28;20446;-55
2022/11/11 14:08:46;;;;;;;65.25;31.35;;;8.80;99.90;;;;;;5070618;28;20484;-49
2022/11/11 14:11:23;;;;;;;61.22;29.33;;;8.90;99.90;;;;;;5073842;28;20483;-50
2022/11/11 14:13:49;;;;;;;56.03;29.80;;;9.00;99.90;;;;;;5074919;28;20051;-50
2022/11/11 14:16:36;;;;;;;68.40;29.92;;;9.00;99.90;;;;;;5074785;28;20104;-47
2022/11/11 14:19:19;;;;;;;69.50;32.05;;;9.00;99.90;;;;;;5075122;28;20535;-48
2022/11/11 14:21:57;;;;;;;55.40;28.25;;;8.90;99.90;;;;;;5068412;28;20189;-49